Terminal Aerodrome Forecast
Issued by NWS Bismarck, ND

Home | Current Version | Previous Version | Text Only | Print | Product List | Glossary Off
Versions: 1 2 3 4 5 6 7 8 9 10 11 12 13 14 15

339
FTUS43 KBIS 241720
TAFISN
TAF
KISN 241720Z 2418/2518 13009KT P6SM FEW120
     FM250500 14009KT P6SM BKN200 WS020/18040KT
     FM251200 18009KT P6SM BKN120=

USA.gov is the U.S. government's official web portal to all federal, state and local government web resources and services.